sensor_id;sensor_type;location;lat;lon;timestamp;temperature;humidity
18002;DHT22;9126;48.160;17.130;2022-07-04T00:00:59;26.80;45.40
18002;DHT22;9126;48.160;17.130;2022-07-04T00:03:26;26.70;45.50
18002;DHT22;9126;48.160;17.130;2022-07-04T00:05:53;26.70;45.70
18002;DHT22;9126;48.160;17.130;2022-07-04T00:08:22;26.70;45.80
18002;DHT22;9126;48.160;17.130;2022-07-04T00:10:50;26.70;45.80
18002;DHT22;9126;48.160;17.130;2022-07-04T00:13:17;26.70;45.90
18002;DHT22;9126;48.160;17.130;2022-07-04T00:15:44;26.60;46.00
18002;DHT22;9126;48.160;17.130;2022-07-04T00:18:11;26.60;46.00
18002;DHT22;9126;48.160;17.130;2022-07-04T00:20:38;26.60;46.10
18002;DHT22;9126;48.160;17.130;2022-07-04T00:23:05;26.50;46.10
18002;DHT22;9126;48.160;17.130;2022-07-04T00:25:33;26.40;46.00
18002;DHT22;9126;48.160;17.130;2022-07-04T00:28:01;26.40;46.00
18002;DHT22;9126;48.160;17.130;2022-07-04T00:30:28;26.30;46.10
18002;DHT22;9126;48.160;17.130;2022-07-04T00:32:55;26.20;46.20
18002;DHT22;9126;48.160;17.130;2022-07-04T00:35:22;26.20;46.40
18002;DHT22;9126;48.160;17.130;2022-07-04T00:37:49;26.20;46.40
18002;DHT22;9126;48.160;17.130;2022-07-04T00:40:16;26.20;46.40
18002;DHT22;9126;48.160;17.130;2022-07-04T00:42:45;26.20;46.40
18002;DHT22;9126;48.160;17.130;2022-07-04T00:45:12;26.20;46.40
18002;DHT22;9126;48.160;17.130;2022-07-04T00:47:39;26.20;46.40
18002;DHT22;9126;48.160;17.130;2022-07-04T00:50:06;26.20;46.40
18002;DHT22;9126;48.160;17.130;2022-07-04T00:52:33;26.20;46.50
18002;DHT22;9126;48.160;17.130;2022-07-04T00:55:01;26.10;46.50
18002;DHT22;9126;48.160;17.130;2022-07-04T00:57:28;26.10;46.70
18002;DHT22;9126;48.160;17.130;2022-07-04T00:59:57;26.10;46.70
18002;DHT22;9126;48.160;17.130;2022-07-04T01:02:24;26.10;46.80
18002;DHT22;9126;48.160;17.130;2022-07-04T01:04:51;26.10;46.90
18002;DHT22;9126;48.160;17.130;2022-07-04T01:07:18;26.10;46.90
18002;DHT22;9126;48.160;17.130;2022-07-04T01:09:46;26.10;47.00
18002;DHT22;9126;48.160;17.130;2022-07-04T01:12:24;26.10;47.10
18002;DHT22;9126;48.160;17.130;2022-07-04T01:14:52;26.10;47.10
18002;DHT22;9126;48.160;17.130;2022-07-04T01:17:20;26.10;47.10
18002;DHT22;9126;48.160;17.130;2022-07-04T01:19:47;26.10;47.10
18002;DHT22;9126;48.160;17.130;2022-07-04T01:22:18;26.00;47.20
18002;DHT22;9126;48.160;17.130;2022-07-04T01:24:46;25.90;47.40
18002;DHT22;9126;48.160;17.130;2022-07-04T01:27:14;25.90;47.50
18002;DHT22;9126;48.160;17.130;2022-07-04T01:29:41;25.90;47.60
18002;DHT22;9126;48.160;17.130;2022-07-04T01:32:09;25.80;47.60
18002;DHT22;9126;48.160;17.130;2022-07-04T01:34:36;25.80;47.70
18002;DHT22;9126;48.160;17.130;2022-07-04T01:37:04;25.70;47.80
18002;DHT22;9126;48.160;17.130;2022-07-04T01:39:34;25.70;47.90
18002;DHT22;9126;48.160;17.130;2022-07-04T01:42:00;25.60;48.00
18002;DHT22;9126;48.160;17.130;2022-07-04T01:44:27;25.50;47.90
18002;DHT22;9126;48.160;17.130;2022-07-04T01:46:54;25.50;48.00
18002;DHT22;9126;48.160;17.130;2022-07-04T01:49:22;25.60;48.60
18002;DHT22;9126;48.160;17.130;2022-07-04T01:51:50;25.50;48.10
18002;DHT22;9126;48.160;17.130;2022-07-04T01:54:18;25.50;48.10
18002;DHT22;9126;48.160;17.130;2022-07-04T01:56:46;25.50;48.20
18002;DHT22;9126;48.160;17.130;2022-07-04T01:59:13;25.50;48.20
18002;DHT22;9126;48.160;17.130;2022-07-04T02:01:40;25.50;48.20
18002;DHT22;9126;48.160;17.130;2022-07-04T02:04:07;25.60;48.30
18002;DHT22;9126;48.160;17.130;2022-07-04T02:06:34;25.60;48.30
18002;DHT22;9126;48.160;17.130;2022-07-04T02:09:02;25.60;48.40
18002;DHT22;9126;48.160;17.130;2022-07-04T02:11:42;25.60;48.50
18002;DHT22;9126;48.160;17.130;2022-07-04T02:14:29;25.50;48.50
18002;DHT22;9126;48.160;17.130;2022-07-04T02:16:56;25.50;48.60
18002;DHT22;9126;48.160;17.130;2022-07-04T02:19:23;25.50;48.60
18002;DHT22;9126;48.160;17.130;2022-07-04T02:21:50;25.30;48.90
18002;DHT22;9126;48.160;17.130;2022-07-04T02:24:18;25.10;49.10
18002;DHT22;9126;48.160;17.130;2022-07-04T02:26:45;25.10;49.30
18002;DHT22;9126;48.160;17.130;2022-07-04T02:29:12;25.00;49.40
18002;DHT22;9126;48.160;17.130;2022-07-04T02:31:42;24.90;49.50
18002;DHT22;9126;48.160;17.130;2022-07-04T02:34:09;24.80;49.70
18002;DHT22;9126;48.160;17.130;2022-07-04T02:36:37;24.80;49.80
18002;DHT22;9126;48.160;17.130;2022-07-04T02:39:04;24.80;49.90
18002;DHT22;9126;48.160;17.130;2022-07-04T02:41:31;24.80;49.90
18002;DHT22;9126;48.160;17.130;2022-07-04T02:43:59;24.70;49.70
18002;DHT22;9126;48.160;17.130;2022-07-04T02:46:26;24.70;50.30
18002;DHT22;9126;48.160;17.130;2022-07-04T02:48:54;24.70;49.70
18002;DHT22;9126;48.160;17.130;2022-07-04T02:51:21;24.60;49.70
18002;DHT22;9126;48.160;17.130;2022-07-04T02:53:48;24.60;49.70
18002;DHT22;9126;48.160;17.130;2022-07-04T02:56:15;24.60;49.80
18002;DHT22;9126;48.160;17.130;2022-07-04T02:58:42;24.60;49.80
18002;DHT22;9126;48.160;17.130;2022-07-04T03:01:09;24.60;49.90
18002;DHT22;9126;48.160;17.130;2022-07-04T03:03:38;24.60;49.90
18002;DHT22;9126;48.160;17.130;2022-07-04T03:06:07;24.50;50.00
18002;DHT22;9126;48.160;17.130;2022-07-04T03:08:34;24.40;50.10
18002;DHT22;9126;48.160;17.130;2022-07-04T03:11:01;24.20;50.30
18002;DHT22;9126;48.160;17.130;2022-07-04T03:13:28;24.20;50.40
18002;DHT22;9126;48.160;17.130;2022-07-04T03:15:55;24.30;50.40
18002;DHT22;9126;48.160;17.130;2022-07-04T03:18:23;24.30;50.90
18002;DHT22;9126;48.160;17.130;2022-07-04T03:20:50;24.40;50.20
18002;DHT22;9126;48.160;17.130;2022-07-04T03:23:18;24.50;50.10
18002;DHT22;9126;48.160;17.130;2022-07-04T03:25:45;24.50;50.00
18002;DHT22;9126;48.160;17.130;2022-07-04T03:28:13;24.50;50.00
18002;DHT22;9126;48.160;17.130;2022-07-04T03:30:40;24.60;50.00
18002;DHT22;9126;48.160;17.130;2022-07-04T03:33:07;24.60;50.00
18002;DHT22;9126;48.160;17.130;2022-07-04T03:35:34;24.60;50.50
18002;DHT22;9126;48.160;17.130;2022-07-04T03:38:01;24.70;50.00
18002;DHT22;9126;48.160;17.130;2022-07-04T03:40:29;24.70;49.90
18002;DHT22;9126;48.160;17.130;2022-07-04T03:42:58;24.70;49.90
18002;DHT22;9126;48.160;17.130;2022-07-04T03:45:25;24.60;49.90
18002;DHT22;9126;48.160;17.130;2022-07-04T03:47:52;24.60;49.90
18002;DHT22;9126;48.160;17.130;2022-07-04T03:50:19;24.60;49.90
18002;DHT22;9126;48.160;17.130;2022-07-04T03:52:46;24.70;49.90
18002;DHT22;9126;48.160;17.130;2022-07-04T03:55:13;24.70;49.80
18002;DHT22;9126;48.160;17.130;2022-07-04T03:57:42;24.70;49.80
18002;DHT22;9126;48.160;17.130;2022-07-04T04:00:09;24.60;49.80
18002;DHT22;9126;48.160;17.130;2022-07-04T04:02:37;24.70;49.80
18002;DHT22;9126;48.160;17.130;2022-07-04T04:05:05;24.80;49.80
18002;DHT22;9126;48.160;17.130;2022-07-04T04:07:50;24.90;49.70
18002;DHT22;9126;48.160;17.130;2022-07-04T04:10:17;25.00;49.50
18002;DHT22;9126;48.160;17.130;2022-07-04T04:12:45;25.10;49.40
18002;DHT22;9126;48.160;17.130;2022-07-04T04:15:12;25.10;49.30
18002;DHT22;9126;48.160;17.130;2022-07-04T04:17:39;25.20;49.20
18002;DHT22;9126;48.160;17.130;2022-07-04T04:20:07;25.20;49.10
18002;DHT22;9126;48.160;17.130;2022-07-04T04:22:37;25.30;49.00
18002;DHT22;9126;48.160;17.130;2022-07-04T04:25:05;25.40;49.00
18002;DHT22;9126;48.160;17.130;2022-07-04T04:27:33;25.40;48.90
18002;DHT22;9126;48.160;17.130;2022-07-04T04:30:02;25.40;48.80
18002;DHT22;9126;48.160;17.130;2022-07-04T04:32:29;25.50;48.90
18002;DHT22;9126;48.160;17.130;2022-07-04T04:34:57;25.50;48.80
18002;DHT22;9126;48.160;17.130;2022-07-04T04:37:25;25.50;48.80
18002;DHT22;9126;48.160;17.130;2022-07-04T04:39:52;25.50;48.90
18002;DHT22;9126;48.160;17.130;2022-07-04T04:42:19;25.60;48.90
18002;DHT22;9126;48.160;17.130;2022-07-04T04:44:46;25.70;48.90
18002;DHT22;9126;48.160;17.130;2022-07-04T04:47:15;25.70;48.70
18002;DHT22;9126;48.160;17.130;2022-07-04T04:49:42;25.80;48.70
18002;DHT22;9126;48.160;17.130;2022-07-04T04:52:09;25.80;48.60
18002;DHT22;9126;48.160;17.130;2022-07-04T04:54:37;25.90;48.60
18002;DHT22;9126;48.160;17.130;2022-07-04T04:57:06;26.00;48.60
18002;DHT22;9126;48.160;17.130;2022-07-04T04:59:33;26.00;48.40
18002;DHT22;9126;48.160;17.130;2022-07-04T05:02:00;26.10;48.40
18002;DHT22;9126;48.160;17.130;2022-07-04T05:04:29;26.10;48.20
18002;DHT22;9126;48.160;17.130;2022-07-04T05:06:56;26.20;48.10
18002;DHT22;9126;48.160;17.130;2022-07-04T05:09:24;26.30;48.00
18002;DHT22;9126;48.160;17.130;2022-07-04T05:11:51;26.40;47.60
18002;DHT22;9126;48.160;17.130;2022-07-04T05:14:18;26.50;47.20
18002;DHT22;9126;48.160;17.130;2022-07-04T05:16:45;26.60;46.90
18002;DHT22;9126;48.160;17.130;2022-07-04T05:19:12;26.70;46.70
18002;DHT22;9126;48.160;17.130;2022-07-04T05:21:41;26.90;46.40
18002;DHT22;9126;48.160;17.130;2022-07-04T05:24:08;26.90;45.90
18002;DHT22;9126;48.160;17.130;2022-07-04T05:26:36;26.90;45.50
18002;DHT22;9126;48.160;17.130;2022-07-04T05:29:04;27.00;45.30
18002;DHT22;9126;48.160;17.130;2022-07-04T05:31:31;27.10;45.00
18002;DHT22;9126;48.160;17.130;2022-07-04T05:33:58;27.10;44.60
18002;DHT22;9126;48.160;17.130;2022-07-04T05:36:26;27.10;44.40
18002;DHT22;9126;48.160;17.130;2022-07-04T05:38:54;27.20;44.30
18002;DHT22;9126;48.160;17.130;2022-07-04T05:41:21;27.30;44.10
18002;DHT22;9126;48.160;17.130;2022-07-04T05:43:48;27.30;43.80
18002;DHT22;9126;48.160;17.130;2022-07-04T05:46:17;27.40;43.90
18002;DHT22;9126;48.160;17.130;2022-07-04T05:48:44;27.70;44.60
18002;DHT22;9126;48.160;17.130;2022-07-04T05:51:11;28.00;44.10
18002;DHT22;9126;48.160;17.130;2022-07-04T05:53:41;28.10;44.50
18002;DHT22;9126;48.160;17.130;2022-07-04T05:56:09;28.30;43.70
18002;DHT22;9126;48.160;17.130;2022-07-04T05:58:36;28.40;43.40
18002;DHT22;9126;48.160;17.130;2022-07-04T06:01:03;28.50;43.20
18002;DHT22;9126;48.160;17.130;2022-07-04T06:03:31;28.60;43.00
18002;DHT22;9126;48.160;17.130;2022-07-04T06:05:58;28.80;42.80
18002;DHT22;9126;48.160;17.130;2022-07-04T06:08:25;29.00;42.40
18002;DHT22;9126;48.160;17.130;2022-07-04T06:10:52;29.30;42.10
18002;DHT22;9126;48.160;17.130;2022-07-04T06:13:20;29.40;41.60
18002;DHT22;9126;48.160;17.130;2022-07-04T06:15:47;29.50;41.10
18002;DHT22;9126;48.160;17.130;2022-07-04T06:18:14;29.60;41.00
18002;DHT22;9126;48.160;17.130;2022-07-04T06:20:42;29.60;40.90
18002;DHT22;9126;48.160;17.130;2022-07-04T06:23:09;29.60;40.60
18002;DHT22;9126;48.160;17.130;2022-07-04T06:25:36;29.60;40.60
18002;DHT22;9126;48.160;17.130;2022-07-04T06:28:03;29.60;41.00
18002;DHT22;9126;48.160;17.130;2022-07-04T06:30:31;29.40;41.20
18002;DHT22;9126;48.160;17.130;2022-07-04T06:32:58;29.20;41.20
18002;DHT22;9126;48.160;17.130;2022-07-04T06:35:27;29.00;41.20
18002;DHT22;9126;48.160;17.130;2022-07-04T06:38:15;29.00;41.30
18002;DHT22;9126;48.160;17.130;2022-07-04T06:40:43;28.90;41.30
18002;DHT22;9126;48.160;17.130;2022-07-04T06:43:10;28.90;41.30
18002;DHT22;9126;48.160;17.130;2022-07-04T06:45:38;28.90;41.30
18002;DHT22;9126;48.160;17.130;2022-07-04T06:48:06;28.90;41.40
18002;DHT22;9126;48.160;17.130;2022-07-04T06:50:33;28.90;41.40
18002;DHT22;9126;48.160;17.130;2022-07-04T06:53:01;28.90;41.40
18002;DHT22;9126;48.160;17.130;2022-07-04T06:55:29;28.90;41.20
18002;DHT22;9126;48.160;17.130;2022-07-04T06:57:56;29.00;41.00
18002;DHT22;9126;48.160;17.130;2022-07-04T07:00:23;29.10;40.90
18002;DHT22;9126;48.160;17.130;2022-07-04T07:02:52;29.30;40.70
18002;DHT22;9126;48.160;17.130;2022-07-04T07:05:19;29.40;40.40
18002;DHT22;9126;48.160;17.130;2022-07-04T07:07:46;29.50;40.20
18002;DHT22;9126;48.160;17.130;2022-07-04T07:10:13;29.60;40.00
18002;DHT22;9126;48.160;17.130;2022-07-04T07:12:40;29.60;39.90
18002;DHT22;9126;48.160;17.130;2022-07-04T07:15:07;29.60;40.40
18002;DHT22;9126;48.160;17.130;2022-07-04T07:17:35;29.70;39.90
18002;DHT22;9126;48.160;17.130;2022-07-04T07:20:04;29.80;39.80
18002;DHT22;9126;48.160;17.130;2022-07-04T07:22:31;30.00;39.60
18002;DHT22;9126;48.160;17.130;2022-07-04T07:24:59;30.30;39.30
18002;DHT22;9126;48.160;17.130;2022-07-04T07:27:26;30.50;38.70
18002;DHT22;9126;48.160;17.130;2022-07-04T07:29:53;30.70;38.20
18002;DHT22;9126;48.160;17.130;2022-07-04T07:32:20;30.90;37.80
18002;DHT22;9126;48.160;17.130;2022-07-04T07:34:47;31.20;37.50
18002;DHT22;9126;48.160;17.130;2022-07-04T07:37:15;31.50;37.30
18002;DHT22;9126;48.160;17.130;2022-07-04T07:39:43;31.60;37.10
18002;DHT22;9126;48.160;17.130;2022-07-04T07:42:10;31.70;37.10
18002;DHT22;9126;48.160;17.130;2022-07-04T07:44:37;31.80;36.90
18002;DHT22;9126;48.160;17.130;2022-07-04T07:47:05;32.00;36.70
18002;DHT22;9126;48.160;17.130;2022-07-04T07:49:32;32.20;36.50
18002;DHT22;9126;48.160;17.130;2022-07-04T07:51:59;32.50;36.60
18002;DHT22;9126;48.160;17.130;2022-07-04T07:54:28;32.70;36.60
18002;DHT22;9126;48.160;17.130;2022-07-04T07:56:55;32.70;36.40
18002;DHT22;9126;48.160;17.130;2022-07-04T07:59:22;32.60;36.70
18002;DHT22;9126;48.160;17.130;2022-07-04T08:01:49;32.60;36.10
18002;DHT22;9126;48.160;17.130;2022-07-04T08:04:16;32.60;36.20
18002;DHT22;9126;48.160;17.130;2022-07-04T08:07:02;32.50;36.30
18002;DHT22;9126;48.160;17.130;2022-07-04T08:09:31;32.60;37.30
18002;DHT22;9126;48.160;17.130;2022-07-04T08:11:59;32.50;37.60
18002;DHT22;9126;48.160;17.130;2022-07-04T08:14:27;32.40;38.20
18002;DHT22;9126;48.160;17.130;2022-07-04T08:16:54;32.30;38.30
18002;DHT22;9126;48.160;17.130;2022-07-04T08:19:21;32.10;38.20
18002;DHT22;9126;48.160;17.130;2022-07-04T08:21:50;32.10;38.10
18002;DHT22;9126;48.160;17.130;2022-07-04T08:24:17;32.10;37.80
18002;DHT22;9126;48.160;17.130;2022-07-04T08:26:46;31.90;38.10
18002;DHT22;9126;48.160;17.130;2022-07-04T08:29:14;31.80;37.50
18002;DHT22;9126;48.160;17.130;2022-07-04T08:31:41;31.60;37.80
18002;DHT22;9126;48.160;17.130;2022-07-04T08:34:08;31.60;37.90
18002;DHT22;9126;48.160;17.130;2022-07-04T08:36:35;31.70;38.00
18002;DHT22;9126;48.160;17.130;2022-07-04T08:39:03;31.90;38.00
18002;DHT22;9126;48.160;17.130;2022-07-04T08:41:36;31.90;37.50
18002;DHT22;9126;48.160;17.130;2022-07-04T08:44:06;31.90;37.50
18002;DHT22;9126;48.160;17.130;2022-07-04T08:46:38;32.10;37.70
18002;DHT22;9126;48.160;17.130;2022-07-04T08:49:10;32.30;38.00
18002;DHT22;9126;48.160;17.130;2022-07-04T08:51:44;32.40;38.30
18002;DHT22;9126;48.160;17.130;2022-07-04T08:54:13;32.60;38.40
18002;DHT22;9126;48.160;17.130;2022-07-04T08:56:57;32.50;38.20
18002;DHT22;9126;48.160;17.130;2022-07-04T08:59:44;32.60;38.10
18002;DHT22;9126;48.160;17.130;2022-07-04T09:02:16;32.80;38.00
18002;DHT22;9126;48.160;17.130;2022-07-04T09:04:46;33.00;37.90
18002;DHT22;9126;48.160;17.130;2022-07-04T09:07:13;33.20;38.10
18002;DHT22;9126;48.160;17.130;2022-07-04T09:09:40;33.30;38.20
18002;DHT22;9126;48.160;17.130;2022-07-04T09:12:09;33.30;38.20
18002;DHT22;9126;48.160;17.130;2022-07-04T09:14:36;33.20;38.40
18002;DHT22;9126;48.160;17.130;2022-07-04T09:17:06;33.00;38.40
18002;DHT22;9126;48.160;17.130;2022-07-04T09:19:33;32.80;38.50
18002;DHT22;9126;48.160;17.130;2022-07-04T09:22:08;32.80;38.70
18002;DHT22;9126;48.160;17.130;2022-07-04T09:24:47;32.70;38.60
18002;DHT22;9126;48.160;17.130;2022-07-04T09:27:32;32.50;38.60
18002;DHT22;9126;48.160;17.130;2022-07-04T09:30:00;32.40;38.50
18002;DHT22;9126;48.160;17.130;2022-07-04T09:32:40;32.30;38.30
18002;DHT22;9126;48.160;17.130;2022-07-04T09:35:09;32.10;38.20
18002;DHT22;9126;48.160;17.130;2022-07-04T09:37:39;32.10;38.40
18002;DHT22;9126;48.160;17.130;2022-07-04T09:40:09;32.20;38.50
18002;DHT22;9126;48.160;17.130;2022-07-04T09:42:37;32.30;38.60
18002;DHT22;9126;48.160;17.130;2022-07-04T09:45:09;32.50;38.70
18002;DHT22;9126;48.160;17.130;2022-07-04T09:47:40;32.60;38.60
18002;DHT22;9126;48.160;17.130;2022-07-04T09:50:09;32.60;38.70
18002;DHT22;9126;48.160;17.130;2022-07-04T09:52:51;32.80;38.80
18002;DHT22;9126;48.160;17.130;2022-07-04T09:55:24;33.00;38.50
18002;DHT22;9126;48.160;17.130;2022-07-04T09:57:52;33.10;38.40
18002;DHT22;9126;48.160;17.130;2022-07-04T10:00:21;33.10;38.30
18002;DHT22;9126;48.160;17.130;2022-07-04T10:02:52;32.90;38.00
18002;DHT22;9126;48.160;17.130;2022-07-04T10:05:22;32.70;38.10
18002;DHT22;9126;48.160;17.130;2022-07-04T10:07:49;32.70;38.30
18002;DHT22;9126;48.160;17.130;2022-07-04T10:10:31;32.60;38.10
18002;DHT22;9126;48.160;17.130;2022-07-04T10:13:01;32.60;38.00
18002;DHT22;9126;48.160;17.130;2022-07-04T10:15:29;32.60;37.70
18002;DHT22;9126;48.160;17.130;2022-07-04T10:17:58;32.50;37.40
18002;DHT22;9126;48.160;17.130;2022-07-04T10:20:25;32.40;37.10
18002;DHT22;9126;48.160;17.130;2022-07-04T10:22:53;32.50;37.20
18002;DHT22;9126;48.160;17.130;2022-07-04T10:25:20;32.50;37.30
18002;DHT22;9126;48.160;17.130;2022-07-04T10:27:47;32.60;37.40
18002;DHT22;9126;48.160;17.130;2022-07-04T10:30:21;32.60;37.50
18002;DHT22;9126;48.160;17.130;2022-07-04T10:32:49;32.30;37.70
18002;DHT22;9126;48.160;17.130;2022-07-04T10:35:48;32.20;37.90
18002;DHT22;9126;48.160;17.130;2022-07-04T10:38:17;32.20;38.00
18002;DHT22;9126;48.160;17.130;2022-07-04T10:40:48;32.50;37.90
18002;DHT22;9126;48.160;17.130;2022-07-04T10:46:45;32.70;38.10
18002;DHT22;9126;48.160;17.130;2022-07-04T10:49:26;33.00;38.00
18002;DHT22;9126;48.160;17.130;2022-07-04T10:51:56;33.40;37.70
18002;DHT22;9126;48.160;17.130;2022-07-04T10:54:29;33.70;37.40
18002;DHT22;9126;48.160;17.130;2022-07-04T10:57:06;33.80;36.90
18002;DHT22;9126;48.160;17.130;2022-07-04T10:59:35;33.80;36.70
18002;DHT22;9126;48.160;17.130;2022-07-04T11:02:21;33.80;36.60
18002;DHT22;9126;48.160;17.130;2022-07-04T11:04:54;33.80;36.20
18002;DHT22;9126;48.160;17.130;2022-07-04T11:07:59;33.70;36.70
18002;DHT22;9126;48.160;17.130;2022-07-04T11:10:27;33.50;36.20
18002;DHT22;9126;48.160;17.130;2022-07-04T11:13:16;33.50;36.40
18002;DHT22;9126;48.160;17.130;2022-07-04T11:16:02;33.40;36.60
18002;DHT22;9126;48.160;17.130;2022-07-04T11:18:30;33.40;36.80
18002;DHT22;9126;48.160;17.130;2022-07-04T11:21:18;33.50;36.90
18002;DHT22;9126;48.160;17.130;2022-07-04T11:23:51;33.80;36.70
18002;DHT22;9126;48.160;17.130;2022-07-04T11:26:20;34.10;36.40
18002;DHT22;9126;48.160;17.130;2022-07-04T11:28:48;34.40;36.00
18002;DHT22;9126;48.160;17.130;2022-07-04T11:31:15;34.60;35.60
18002;DHT22;9126;48.160;17.130;2022-07-04T11:33:45;34.60;35.30
18002;DHT22;9126;48.160;17.130;2022-07-04T11:36:14;34.70;35.20
18002;DHT22;9126;48.160;17.130;2022-07-04T11:38:45;34.80;35.00
18002;DHT22;9126;48.160;17.130;2022-07-04T11:41:14;34.80;34.90
18002;DHT22;9126;48.160;17.130;2022-07-04T11:44:02;34.80;34.90
18002;DHT22;9126;48.160;17.130;2022-07-04T11:46:47;35.00;35.00
18002;DHT22;9126;48.160;17.130;2022-07-04T11:49:14;35.20;34.90
18002;DHT22;9126;48.160;17.130;2022-07-04T11:51:42;35.20;35.00
18002;DHT22;9126;48.160;17.130;2022-07-04T11:54:09;35.10;35.10
18002;DHT22;9126;48.160;17.130;2022-07-04T11:56:38;35.00;35.00
18002;DHT22;9126;48.160;17.130;2022-07-04T11:59:13;35.00;34.90
18002;DHT22;9126;48.160;17.130;2022-07-04T12:01:41;34.80;34.80
18002;DHT22;9126;48.160;17.130;2022-07-04T12:04:13;34.90;34.80
18002;DHT22;9126;48.160;17.130;2022-07-04T12:06:40;35.00;34.70
18002;DHT22;9126;48.160;17.130;2022-07-04T12:09:08;35.00;34.50
18002;DHT22;9126;48.160;17.130;2022-07-04T12:11:54;35.00;34.40
18002;DHT22;9126;48.160;17.130;2022-07-04T12:14:23;34.90;34.40
18002;DHT22;9126;48.160;17.130;2022-07-04T12:17:09;34.80;34.40
18002;DHT22;9126;48.160;17.130;2022-07-04T12:19:36;34.90;34.60
18002;DHT22;9126;48.160;17.130;2022-07-04T12:22:04;34.80;34.50
18002;DHT22;9126;48.160;17.130;2022-07-04T12:24:40;34.80;34.50
18002;DHT22;9126;48.160;17.130;2022-07-04T12:27:20;34.80;35.00
18002;DHT22;9126;48.160;17.130;2022-07-04T12:29:48;34.90;35.00
18002;DHT22;9126;48.160;17.130;2022-07-04T12:32:15;34.70;34.60
18002;DHT22;9126;48.160;17.130;2022-07-04T12:34:42;34.60;34.80
18002;DHT22;9126;48.160;17.130;2022-07-04T12:37:12;34.50;34.90
18002;DHT22;9126;48.160;17.130;2022-07-04T12:39:43;34.40;35.20
18002;DHT22;9126;48.160;17.130;2022-07-04T12:42:12;34.40;35.30
18002;DHT22;9126;48.160;17.130;2022-07-04T12:44:42;34.40;35.30
18002;DHT22;9126;48.160;17.130;2022-07-04T12:47:11;34.40;35.30
18002;DHT22;9126;48.160;17.130;2022-07-04T12:49:42;34.40;35.00
18002;DHT22;9126;48.160;17.130;2022-07-04T12:52:12;34.40;35.00
18002;DHT22;9126;48.160;17.130;2022-07-04T12:54:40;34.30;35.20
18002;DHT22;9126;48.160;17.130;2022-07-04T12:57:10;34.30;35.20
18002;DHT22;9126;48.160;17.130;2022-07-04T12:59:38;34.40;34.70
18002;DHT22;9126;48.160;17.130;2022-07-04T13:02:06;34.50;34.80
18002;DHT22;9126;48.160;17.130;2022-07-04T13:04:34;34.60;34.90
18002;DHT22;9126;48.160;17.130;2022-07-04T13:07:12;34.70;35.00
18002;DHT22;9126;48.160;17.130;2022-07-04T13:09:41;35.00;35.10
18002;DHT22;9126;48.160;17.130;2022-07-04T13:12:08;35.30;35.20
18002;DHT22;9126;48.160;17.130;2022-07-04T13:14:51;35.60;35.10
18002;DHT22;9126;48.160;17.130;2022-07-04T13:17:20;35.90;34.90
18002;DHT22;9126;48.160;17.130;2022-07-04T13:19:47;36.10;34.40
18002;DHT22;9126;48.160;17.130;2022-07-04T13:22:14;35.90;34.20
18002;DHT22;9126;48.160;17.130;2022-07-04T13:24:41;35.70;34.10
18002;DHT22;9126;48.160;17.130;2022-07-04T13:27:08;35.50;34.20
18002;DHT22;9126;48.160;17.130;2022-07-04T13:29:36;35.20;34.20
18002;DHT22;9126;48.160;17.130;2022-07-04T13:32:06;34.90;34.30
18002;DHT22;9126;48.160;17.130;2022-07-04T13:34:35;34.80;34.70
18002;DHT22;9126;48.160;17.130;2022-07-04T13:37:03;34.60;34.70
18002;DHT22;9126;48.160;17.130;2022-07-04T13:39:30;34.80;34.50
18002;DHT22;9126;48.160;17.130;2022-07-04T13:41:57;35.10;34.30
18002;DHT22;9126;48.160;17.130;2022-07-04T13:44:24;35.30;34.00
18002;DHT22;9126;48.160;17.130;2022-07-04T13:46:51;35.50;33.50
18002;DHT22;9126;48.160;17.130;2022-07-04T13:49:18;35.50;33.30
18002;DHT22;9126;48.160;17.130;2022-07-04T13:51:46;35.70;33.10
18002;DHT22;9126;48.160;17.130;2022-07-04T13:54:13;36.20;32.80
18002;DHT22;9126;48.160;17.130;2022-07-04T13:56:40;36.40;32.20
18002;DHT22;9126;48.160;17.130;2022-07-04T13:59:08;36.60;31.70
18002;DHT22;9126;48.160;17.130;2022-07-04T14:01:36;36.90;31.60
18002;DHT22;9126;48.160;17.130;2022-07-04T14:04:03;37.10;32.40
18002;DHT22;9126;48.160;17.130;2022-07-04T14:06:32;37.40;32.70
18002;DHT22;9126;48.160;17.130;2022-07-04T14:09:00;37.60;32.70
18002;DHT22;9126;48.160;17.130;2022-07-04T14:11:28;38.00;32.40
18002;DHT22;9126;48.160;17.130;2022-07-04T14:13:55;38.30;32.10
18002;DHT22;9126;48.160;17.130;2022-07-04T14:16:22;38.60;31.80
18002;DHT22;9126;48.160;17.130;2022-07-04T14:18:49;38.90;31.30
18002;DHT22;9126;48.160;17.130;2022-07-04T14:21:16;39.30;31.30
18002;DHT22;9126;48.160;17.130;2022-07-04T14:23:43;39.60;30.20
18002;DHT22;9126;48.160;17.130;2022-07-04T14:26:14;39.70;31.00
18002;DHT22;9126;48.160;17.130;2022-07-04T14:28:43;39.80;30.40
18002;DHT22;9126;48.160;17.130;2022-07-04T14:31:11;40.10;30.00
18002;DHT22;9126;48.160;17.130;2022-07-04T14:33:38;40.30;29.70
18002;DHT22;9126;48.160;17.130;2022-07-04T14:36:06;40.70;29.30
18002;DHT22;9126;48.160;17.130;2022-07-04T14:38:34;41.20;28.80
18002;DHT22;9126;48.160;17.130;2022-07-04T14:41:01;41.50;28.20
18002;DHT22;9126;48.160;17.130;2022-07-04T14:43:38;42.00;27.80
18002;DHT22;9126;48.160;17.130;2022-07-04T14:46:06;42.10;28.00
18002;DHT22;9126;48.160;17.130;2022-07-04T14:48:36;41.90;27.50
18002;DHT22;9126;48.160;17.130;2022-07-04T14:51:04;41.70;27.60
18002;DHT22;9126;48.160;17.130;2022-07-04T14:53:34;41.60;27.20
18002;DHT22;9126;48.160;17.130;2022-07-04T14:56:01;41.50;26.90
18002;DHT22;9126;48.160;17.130;2022-07-04T14:58:28;41.50;26.90
18002;DHT22;9126;48.160;17.130;2022-07-04T15:00:56;41.40;26.80
18002;DHT22;9126;48.160;17.130;2022-07-04T15:03:23;41.20;26.60
18002;DHT22;9126;48.160;17.130;2022-07-04T15:05:50;40.80;26.30
18002;DHT22;9126;48.160;17.130;2022-07-04T15:08:17;40.20;26.10
18002;DHT22;9126;48.160;17.130;2022-07-04T15:10:44;39.60;26.10
18002;DHT22;9126;48.160;17.130;2022-07-04T15:13:11;39.20;26.20
18002;DHT22;9126;48.160;17.130;2022-07-04T15:15:39;39.00;26.20
18002;DHT22;9126;48.160;17.130;2022-07-04T15:18:08;38.70;26.10
18002;DHT22;9126;48.160;17.130;2022-07-04T15:20:35;38.20;26.10
18002;DHT22;9126;48.160;17.130;2022-07-04T15:23:19;37.50;26.50
18002;DHT22;9126;48.160;17.130;2022-07-04T15:26:04;37.00;26.90
18002;DHT22;9126;48.160;17.130;2022-07-04T15:28:31;36.80;27.20
18002;DHT22;9126;48.160;17.130;2022-07-04T15:30:58;37.00;27.40
18002;DHT22;9126;48.160;17.130;2022-07-04T15:33:27;37.00;27.50
18002;DHT22;9126;48.160;17.130;2022-07-04T15:35:56;36.90;27.50
18002;DHT22;9126;48.160;17.130;2022-07-04T15:38:23;37.10;27.60
18002;DHT22;9126;48.160;17.130;2022-07-04T15:40:50;37.40;27.50
18002;DHT22;9126;48.160;17.130;2022-07-04T15:43:18;37.70;27.40
18002;DHT22;9126;48.160;17.130;2022-07-04T15:45:45;38.00;27.20